createdAt,value
2023-03-27T00:00:08.756Z,4.32
2023-03-27T00:02:37.836Z,4.64
2023-03-27T00:05:06.352Z,4.53
2023-03-27T00:07:36.121Z,4.35
2023-03-27T00:10:05.750Z,4.42
2023-03-27T00:12:33.627Z,4.42
2023-03-27T00:15:01.769Z,4.54
2023-03-27T00:17:30.223Z,4.40
2023-03-27T00:19:58.429Z,4.49
2023-03-27T00:22:26.236Z,4.53
2023-03-27T00:24:54.051Z,4.28
2023-03-27T00:27:25.052Z,4.53
2023-03-27T00:29:53.959Z,4.60
2023-03-27T00:32:22.214Z,4.18
2023-03-27T00:34:50.275Z,4.38
2023-03-27T00:37:18.143Z,4.21
2023-03-27T00:39:50.021Z,4.27
2023-03-27T00:42:22.907Z,4.16
2023-03-27T00:44:53.889Z,4.16
2023-03-27T00:47:30.926Z,3.92
2023-03-27T00:50:01.168Z,4.11
2023-03-27T00:52:31.538Z,4.19
2023-03-27T00:55:02.056Z,4.11
2023-03-27T00:57:30.603Z,4.02
2023-03-27T01:00:09.561Z,3.52
2023-03-27T01:02:38.443Z,4.14
2023-03-27T01:05:07.654Z,4.07
2023-03-27T01:07:35.453Z,4.17
2023-03-27T01:10:04.605Z,4.01
2023-03-27T01:12:45.566Z,3.84
2023-03-27T01:15:32.750Z,3.87
2023-03-27T01:18:09.447Z,3.77
2023-03-27T01:20:56.986Z,3.98
2023-03-27T01:24:04.078Z,3.93
2023-03-27T01:26:58.254Z,3.99
2023-03-27T01:29:36.468Z,3.92
2023-03-27T01:32:44.940Z,3.90
2023-03-27T01:35:50.471Z,3.90
2023-03-27T01:39:02.753Z,4.02
2023-03-27T01:41:36.236Z,4.11
2023-03-27T01:44:10.020Z,3.77
2023-03-27T01:46:44.544Z,3.90
2023-03-27T01:49:15.674Z,3.96
2023-03-27T01:51:50.304Z,4.02
2023-03-27T01:54:23.673Z,3.90
2023-03-27T01:56:55.593Z,3.39
2023-03-27T01:59:28.669Z,4.05
2023-03-27T02:02:01.449Z,3.97
2023-03-27T02:04:35.314Z,3.96
2023-03-27T02:07:08.910Z,3.79
2023-03-27T02:09:43.581Z,3.83
2023-03-27T02:12:15.337Z,3.81
2023-03-27T02:14:51.384Z,3.58
2023-03-27T02:17:21.560Z,3.80
2023-03-27T02:19:51.345Z,3.93
2023-03-27T02:22:19.236Z,3.85
2023-03-27T02:25:26.305Z,3.73
2023-03-27T02:28:06.554Z,3.85
2023-03-27T02:30:37.212Z,3.70
2023-03-27T02:33:14.821Z,3.63
2023-03-27T02:35:53.091Z,3.72
2023-03-27T02:38:29.962Z,3.74
2023-03-27T02:41:08.783Z,3.51
2023-03-27T02:43:59.064Z,3.63
2023-03-27T02:46:45.439Z,3.57
2023-03-27T02:49:20.693Z,3.62
2023-03-27T02:51:54.209Z,3.69
2023-03-27T02:54:27.836Z,3.71
2023-03-27T02:57:01.920Z,3.60
2023-03-27T02:59:50.825Z,3.73
2023-03-27T03:02:24.771Z,3.40
2023-03-27T03:05:03.925Z,3.82
2023-03-27T03:07:40.820Z,3.02
2023-03-27T03:10:12.439Z,3.41
2023-03-27T03:12:41.970Z,3.79
2023-03-27T03:15:10.610Z,3.88
2023-03-27T03:17:38.597Z,3.89
2023-03-27T03:20:09.836Z,3.81
2023-03-27T03:22:39.861Z,3.83
2023-03-27T03:25:08.602Z,3.85
2023-03-27T03:27:36.524Z,3.88
2023-03-27T03:30:17.057Z,3.35
2023-03-27T03:32:58.265Z,3.86
2023-03-27T03:35:26.345Z,3.81
2023-03-27T03:37:54.374Z,3.82
2023-03-27T03:40:22.928Z,3.66
2023-03-27T03:42:55.846Z,3.73
2023-03-27T03:45:29.171Z,3.65
2023-03-27T03:47:57.307Z,3.71
2023-03-27T03:50:25.648Z,3.74
2023-03-27T03:52:53.898Z,3.79
2023-03-27T03:55:21.777Z,3.78
2023-03-27T03:57:50.144Z,3.49
2023-03-27T04:00:25.413Z,3.70
2023-03-27T04:02:57.555Z,3.82
2023-03-27T04:05:25.995Z,3.75
2023-03-27T04:07:56.769Z,3.68
2023-03-27T04:10:45.483Z,3.40
2023-03-27T04:13:26.688Z,3.51
2023-03-27T04:16:02.293Z,3.56
2023-03-27T04:18:41.172Z,3.48
2023-03-27T04:21:15.211Z,3.52
2023-03-27T04:23:45.180Z,3.50
2023-03-27T04:26:16.252Z,3.21
2023-03-27T04:29:02.811Z,3.58
2023-03-27T04:31:51.914Z,3.50
2023-03-27T04:34:43.810Z,3.28
2023-03-27T04:37:23.398Z,3.25
2023-03-27T04:40:17.953Z,3.18
2023-03-27T04:42:46.538Z,3.34
2023-03-27T04:45:17.704Z,2.26
2023-03-27T04:47:48.966Z,3.16
2023-03-27T04:50:19.150Z,3.31
2023-03-27T04:52:50.204Z,3.30
2023-03-27T04:55:19.684Z,3.27
2023-03-27T04:57:50.562Z,3.27
2023-03-27T05:00:20.286Z,3.18
2023-03-27T05:02:49.016Z,2.91
2023-03-27T05:05:31.061Z,3.14
2023-03-27T05:07:59.356Z,3.00
2023-03-27T05:10:28.025Z,2.83
2023-03-27T05:12:58.386Z,3.08
2023-03-27T05:15:27.711Z,3.13
2023-03-27T05:17:56.428Z,2.87
2023-03-27T05:20:27.187Z,3.17
2023-03-27T05:22:57.256Z,3.10
2023-03-27T05:25:29.866Z,2.76
2023-03-27T05:27:59.784Z,3.12
2023-03-27T05:30:31.183Z,3.20
2023-03-27T05:33:20.572Z,3.30
2023-03-27T05:35:52.300Z,3.31
2023-03-27T05:38:22.694Z,3.30
2023-03-27T05:41:10.889Z,3.25
2023-03-27T05:43:45.229Z,3.30
2023-03-27T05:46:14.556Z,3.55
2023-03-27T05:48:54.044Z,3.52
2023-03-27T05:51:22.431Z,3.53
2023-03-27T05:53:51.694Z,3.43
2023-03-27T05:56:25.984Z,3.49
2023-03-27T05:58:59.750Z,3.81
2023-03-27T06:01:29.215Z,4.02
2023-03-27T06:03:59.773Z,4.02
2023-03-27T06:06:47.748Z,4.10
2023-03-27T06:09:17.022Z,4.11
2023-03-27T06:11:56.482Z,3.94
2023-03-27T06:14:25.156Z,3.97
2023-03-27T06:17:13.995Z,4.01
2023-03-27T06:19:45.561Z,3.87
2023-03-27T06:22:13.684Z,4.13
2023-03-27T06:24:43.041Z,4.20
2023-03-27T06:27:14.499Z,4.50
2023-03-27T06:29:42.502Z,4.42
2023-03-27T06:32:11.768Z,4.62
2023-03-27T06:34:45.302Z,4.72
2023-03-27T06:37:37.094Z,4.70
2023-03-27T06:40:10.260Z,4.82
2023-03-27T06:42:40.377Z,4.91
2023-03-27T06:45:32.242Z,4.84
2023-03-27T06:48:29.497Z,4.99
2023-03-27T06:50:58.925Z,5.09
2023-03-27T06:53:28.606Z,5.46
2023-03-27T06:55:59.174Z,5.35
2023-03-27T06:58:31.479Z,5.54
2023-03-27T07:01:00.162Z,5.05
2023-03-27T07:03:48.118Z,5.27
2023-03-27T07:06:34.362Z,5.37
2023-03-27T07:09:08.322Z,5.11
2023-03-27T07:11:37.691Z,5.05
2023-03-27T07:14:09.524Z,5.25
2023-03-27T07:16:38.300Z,5.17
2023-03-27T07:19:06.375Z,5.12
2023-03-27T07:21:37.745Z,4.89
2023-03-27T07:24:06.310Z,5.34
2023-03-27T07:26:39.229Z,5.16
2023-03-27T07:29:33.059Z,5.19
2023-03-27T07:32:05.391Z,5.59
2023-03-27T07:34:42.285Z,5.72
2023-03-27T07:37:14.481Z,6.00
2023-03-27T07:40:00.132Z,5.88
2023-03-27T07:42:30.697Z,5.75
2023-03-27T07:45:04.622Z,5.94
2023-03-27T07:47:32.967Z,5.93
2023-03-27T07:50:01.467Z,6.17
2023-03-27T07:52:29.355Z,6.34
2023-03-27T07:55:03.669Z,6.37
2023-03-27T07:57:57.248Z,6.56
2023-03-27T08:00:29.691Z,6.37
2023-03-27T08:03:09.865Z,6.34
2023-03-27T08:05:42.977Z,6.29
2023-03-27T08:08:13.090Z,6.42
2023-03-27T08:10:46.417Z,6.66
2023-03-27T08:13:18.299Z,6.58
2023-03-27T08:15:46.609Z,6.54
2023-03-27T08:18:24.467Z,6.43
2023-03-27T08:20:57.153Z,6.11
2023-03-27T08:23:27.217Z,6.41
2023-03-27T08:26:18.134Z,6.48
2023-03-27T08:28:54.117Z,6.12
2023-03-27T08:31:25.812Z,6.62
2023-03-27T08:33:56.038Z,6.54
2023-03-27T08:36:27.957Z,7.08
2023-03-27T08:38:56.454Z,7.28
2023-03-27T08:41:38.462Z,6.59
2023-03-27T08:44:19.704Z,6.94
2023-03-27T08:46:52.199Z,6.96
2023-03-27T08:49:21.836Z,7.24
2023-03-27T08:52:15.641Z,7.00
2023-03-27T08:54:47.721Z,7.18
2023-03-27T08:57:23.721Z,6.89
2023-03-27T09:00:04.590Z,6.78
2023-03-27T09:02:45.689Z,6.86
2023-03-27T09:05:19.358Z,6.94
2023-03-27T09:07:57.052Z,6.96
2023-03-27T09:10:36.869Z,6.69
2023-03-27T09:13:20.296Z,6.63
2023-03-27T09:15:58.076Z,6.61
2023-03-27T09:18:31.479Z,6.61
2023-03-27T09:21:07.194Z,6.47
2023-03-27T09:23:39.600Z,6.50
2023-03-27T09:26:32.039Z,6.42
2023-03-27T09:29:22.468Z,6.95
2023-03-27T09:31:59.796Z,7.19
2023-03-27T09:34:30.472Z,7.32
2023-03-27T09:37:00.413Z,7.21
2023-03-27T09:39:33.934Z,6.85
2023-03-27T09:42:19.305Z,7.47
2023-03-27T09:44:51.361Z,7.60
2023-03-27T09:47:28.059Z,7.69
2023-03-27T09:50:08.345Z,7.05
2023-03-27T09:52:54.463Z,7.61
2023-03-27T09:55:52.965Z,7.92
2023-03-27T09:58:34.480Z,7.56
2023-03-27T10:01:15.568Z,7.98
2023-03-27T10:03:51.919Z,7.51
2023-03-27T10:06:31.425Z,7.51
2023-03-27T10:09:20.841Z,7.61
2023-03-27T10:11:50.764Z,7.07
2023-03-27T10:14:27.012Z,7.92
2023-03-27T10:16:56.033Z,7.67
2023-03-27T10:19:30.529Z,7.95
2023-03-27T10:22:04.879Z,7.50
2023-03-27T10:24:34.254Z,7.25
2023-03-27T10:27:07.506Z,7.65
2023-03-27T10:29:39.765Z,7.81
2023-03-27T10:32:13.947Z,7.62
2023-03-27T10:35:23.599Z,7.55
2023-03-27T10:38:16.924Z,7.98
2023-03-27T10:41:14.844Z,8.08
2023-03-27T10:43:50.721Z,7.95
2023-03-27T10:46:22.588Z,7.91
2023-03-27T10:48:59.579Z,8.07
2023-03-27T10:51:47.057Z,8.24
2023-03-27T10:54:35.511Z,8.43
2023-03-27T10:57:07.019Z,8.75
2023-03-27T10:59:42.850Z,8.92
2023-03-27T11:02:40.729Z,8.66
2023-03-27T11:05:13.121Z,8.17
2023-03-27T11:07:50.344Z,7.59
2023-03-27T11:10:24.909Z,6.96
2023-03-27T11:12:57.402Z,5.91
2023-03-27T11:15:31.553Z,4.91
2023-03-27T11:18:03.997Z,4.81
2023-03-27T11:20:47.343Z,4.46
2023-03-27T11:23:50.300Z,4.60
2023-03-27T11:26:23.088Z,5.04
2023-03-27T11:28:57.537Z,5.07
2023-03-27T11:31:39.201Z,5.60
2023-03-27T11:34:14.206Z,5.71
2023-03-27T11:37:02.677Z,6.10
2023-03-27T11:39:43.451Z,6.32
2023-03-27T11:42:17.368Z,6.63
2023-03-27T11:44:46.765Z,6.72
2023-03-27T11:48:10.228Z,7.35
2023-03-27T11:50:53.025Z,7.20
2023-03-27T11:53:43.745Z,7.23
2023-03-27T11:56:29.072Z,7.01
2023-03-27T11:59:21.942Z,6.62
2023-03-27T12:02:07.750Z,5.63
2023-03-27T12:04:48.460Z,5.08
2023-03-27T12:07:47.668Z,4.69
2023-03-27T12:10:28.936Z,4.12
2023-03-27T12:13:40.728Z,4.18
2023-03-27T12:16:33.091Z,4.13
2023-03-27T12:19:28.313Z,4.99
2023-03-27T12:22:27.067Z,5.31
2023-03-27T12:25:27.160Z,5.57
2023-03-27T12:28:46.337Z,6.01
2023-03-27T12:31:36.290Z,6.27
2023-03-27T12:34:07.075Z,6.36
2023-03-27T12:36:39.252Z,6.70
2023-03-27T12:39:16.187Z,6.82
2023-03-27T12:41:45.428Z,6.75
2023-03-27T12:44:29.164Z,7.06
2023-03-27T12:47:21.565Z,7.50
2023-03-27T12:49:59.382Z,6.74
2023-03-27T12:52:33.791Z,7.83
2023-03-27T12:55:24.073Z,7.57
2023-03-27T12:57:58.252Z,7.19
2023-03-27T13:00:59.688Z,6.98
2023-03-27T13:04:10.086Z,6.81
2023-03-27T13:06:48.109Z,6.33
2023-03-27T13:09:29.318Z,5.84
2023-03-27T13:12:19.451Z,6.10
2023-03-27T13:15:06.624Z,5.96
2023-03-27T13:18:04.636Z,5.70
2023-03-27T13:20:47.142Z,5.57
2023-03-27T13:23:43.018Z,5.58
2023-03-27T13:26:36.450Z,5.32
2023-03-27T13:29:16.990Z,5.36
2023-03-27T13:31:59.143Z,5.11
2023-03-27T13:34:42.171Z,5.24
2023-03-27T13:37:53.633Z,5.52
2023-03-27T13:40:31.520Z,5.73
2023-03-27T13:43:23.488Z,5.83
2023-03-27T13:46:00.080Z,6.04
2023-03-27T13:49:16.404Z,6.32
2023-03-27T13:52:27.192Z,6.48
2023-03-27T13:55:20.538Z,6.33
2023-03-27T13:58:23.408Z,6.56
2023-03-27T14:01:14.185Z,6.83
2023-03-27T14:04:06.259Z,6.83
2023-03-27T14:08:01.216Z,-144.63
2023-03-27T14:11:58.997Z,-144.63
2023-03-27T14:16:17.191Z,-144.63
2023-03-27T14:20:20.147Z,-144.63
2023-03-27T14:23:53.267Z,-144.63
2023-03-27T14:27:33.878Z,-144.63
2023-03-27T14:31:07.056Z,-144.63
2023-03-27T14:35:05.612Z,-144.63
2023-03-27T14:38:39.761Z,-144.63
2023-03-27T14:42:17.782Z,-144.63
2023-03-27T14:45:49.275Z,-144.63
2023-03-27T14:49:24.507Z,-144.63
2023-03-27T14:53:00.401Z,-144.63
2023-03-27T14:56:38.256Z,-144.63
2023-03-27T15:00:27.521Z,-144.63
2023-03-27T15:03:54.454Z,-144.63
2023-03-27T15:07:28.664Z,-144.63
2023-03-27T15:11:17.853Z,-144.63
2023-03-27T15:15:25.455Z,-144.63
2023-03-27T15:18:58.639Z,-144.63
2023-03-27T15:22:29.918Z,-144.63
2023-03-27T15:26:01.996Z,-144.63
2023-03-27T15:29:39.148Z,-144.63
2023-03-27T15:33:09.812Z,-144.63
2023-03-27T15:36:38.568Z,-144.63
2023-03-27T15:40:28.487Z,-144.63
2023-03-27T15:44:02.676Z,-144.63
2023-03-27T15:47:34.348Z,-144.63
2023-03-27T15:51:06.660Z,-144.63
2023-03-27T15:54:34.742Z,-144.63
2023-03-27T15:58:13.837Z,-144.63
2023-03-27T16:01:53.219Z,-144.63
2023-03-27T16:05:20.792Z,-144.63
2023-03-27T16:08:48.973Z,-144.63
2023-03-27T16:12:32.760Z,-144.63
2023-03-27T16:16:01.008Z,-144.63
2023-03-27T16:19:41.627Z,-144.63
2023-03-27T16:23:08.723Z,-144.63
2023-03-27T16:26:35.320Z,-144.63
2023-03-27T16:30:03.352Z,-144.63
2023-03-27T16:33:31.114Z,-144.63
2023-03-27T16:36:57.791Z,-144.63
2023-03-27T16:40:24.358Z,-144.63
2023-03-27T16:43:50.763Z,-144.63
2023-03-27T16:47:20.520Z,-144.63
2023-03-27T16:50:48.345Z,-144.63
2023-03-27T16:54:14.646Z,-144.63
2023-03-27T16:57:41.767Z,-144.63
2023-03-27T17:01:09.788Z,-144.63
2023-03-27T17:04:37.652Z,-144.63
2023-03-27T17:08:07.315Z,-144.63
2023-03-27T17:11:34.164Z,-144.63
2023-03-27T17:15:01.005Z,-144.63
2023-03-27T17:18:30.309Z,-144.63
2023-03-27T17:21:56.610Z,-144.63
2023-03-27T17:25:24.489Z,-144.63
2023-03-27T17:28:50.902Z,-144.63
2023-03-27T17:32:17.302Z,-144.63
2023-03-27T17:35:43.756Z,-144.63
2023-03-27T17:39:10.359Z,-144.63
2023-03-27T17:42:38.472Z,-144.63
2023-03-27T17:46:05.554Z,-144.63
2023-03-27T17:49:34.375Z,-144.63
2023-03-27T17:53:00.754Z,-144.63
2023-03-27T17:56:27.288Z,-144.63
2023-03-27T17:59:55.300Z,-144.63
2023-03-27T18:03:22.175Z,-144.63
2023-03-27T18:06:48.988Z,-144.63
2023-03-27T18:10:19.122Z,-144.63
2023-03-27T18:13:51.285Z,-144.63
2023-03-27T18:17:21.122Z,-144.63
2023-03-27T18:20:50.865Z,-144.63
2023-03-27T18:24:17.235Z,-144.63
2023-03-27T18:27:44.875Z,-144.63
2023-03-27T18:31:13.003Z,-144.63
2023-03-27T18:33:56.058Z,-144.63
2023-03-27T18:36:23.941Z,6.00
2023-03-27T18:38:52.068Z,5.93
2023-03-27T18:41:20.060Z,5.87
2023-03-27T18:43:48.010Z,5.61
2023-03-27T18:46:17.623Z,5.87
2023-03-27T18:48:48.955Z,5.78
2023-03-27T18:51:18.646Z,5.58
2023-03-27T18:53:46.925Z,5.63
2023-03-27T18:56:15.061Z,5.64
2023-03-27T18:58:43.055Z,5.54
2023-03-27T19:01:11.611Z,5.64
2023-03-27T19:03:42.136Z,5.73
2023-03-27T19:06:12.960Z,5.60
2023-03-27T19:08:42.671Z,5.63
2023-03-27T19:11:11.451Z,5.73
2023-03-27T19:14:17.790Z,5.24
2023-03-27T19:17:06.198Z,5.60
2023-03-27T19:19:54.190Z,5.59
2023-03-27T19:22:49.451Z,5.31
2023-03-27T19:25:40.165Z,4.88
2023-03-27T19:28:08.136Z,5.50
2023-03-27T19:30:36.167Z,5.56
2023-03-27T19:33:04.108Z,5.60
2023-03-27T19:35:32.179Z,5.68
2023-03-27T19:38:01.386Z,5.49
2023-03-27T19:40:29.358Z,5.53
2023-03-27T19:42:57.173Z,5.59
2023-03-27T19:45:26.355Z,5.63
2023-03-27T19:47:54.169Z,5.38
2023-03-27T19:50:22.743Z,5.32
2023-03-27T19:53:14.648Z,5.47
2023-03-27T19:55:43.032Z,5.32
2023-03-27T19:58:10.997Z,4.92
2023-03-27T20:00:39.440Z,5.44
2023-03-27T20:03:10.001Z,5.49
2023-03-27T20:05:41.749Z,5.35
2023-03-27T20:08:09.569Z,5.09
2023-03-27T20:10:38.862Z,4.82
2023-03-27T20:13:06.708Z,4.99
2023-03-27T20:15:34.888Z,4.87
2023-03-27T20:18:04.609Z,4.71
2023-03-27T20:20:32.641Z,5.03
2023-03-27T20:23:02.740Z,4.89
2023-03-27T20:25:33.682Z,4.77
2023-03-27T20:28:06.239Z,4.83
2023-03-27T20:30:37.066Z,4.68
2023-03-27T20:33:05.490Z,4.49
2023-03-27T20:35:36.557Z,4.52
2023-03-27T20:38:05.732Z,4.50
2023-03-27T20:40:52.241Z,4.90
2023-03-27T20:43:27.244Z,5.02
2023-03-27T20:45:58.771Z,4.98
2023-03-27T20:48:32.449Z,4.73
2023-03-27T20:51:02.911Z,4.90
2023-03-27T20:53:33.634Z,4.88
2023-03-27T20:56:04.763Z,5.01
2023-03-27T20:58:36.598Z,5.04
2023-03-27T21:01:06.795Z,4.58
2023-03-27T21:03:36.808Z,4.77
2023-03-27T21:06:06.704Z,4.68
2023-03-27T21:08:35.308Z,4.22
2023-03-27T21:11:03.866Z,4.65
2023-03-27T21:13:32.284Z,4.51
2023-03-27T21:16:02.515Z,4.68
2023-03-27T21:18:30.969Z,4.63
2023-03-27T21:20:58.880Z,4.58
2023-03-27T21:23:26.837Z,4.60
2023-03-27T21:25:55.423Z,4.66
2023-03-27T21:28:23.396Z,4.78
2023-03-27T21:30:51.240Z,4.38
2023-03-27T21:33:20.652Z,4.54
2023-03-27T21:35:49.625Z,4.82
2023-03-27T21:38:18.672Z,4.53
2023-03-27T21:40:47.584Z,4.50
2023-03-27T21:43:16.641Z,4.41
2023-03-27T21:45:46.615Z,4.51
2023-03-27T21:48:14.513Z,4.52
2023-03-27T21:50:43.869Z,3.80
2023-03-27T21:53:13.478Z,4.67
2023-03-27T21:55:41.513Z,4.41
2023-03-27T21:58:09.661Z,4.49
2023-03-27T22:00:37.758Z,4.35
2023-03-27T22:03:06.767Z,4.28
2023-03-27T22:05:37.072Z,4.30
2023-03-27T22:08:06.950Z,3.98
2023-03-27T22:10:35.724Z,4.20
2023-03-27T22:13:04.027Z,4.42
2023-03-27T22:15:32.324Z,4.29
2023-03-27T22:18:01.005Z,4.42
2023-03-27T22:20:29.069Z,4.47
2023-03-27T22:22:56.864Z,4.54
2023-03-27T22:25:26.469Z,4.47
2023-03-27T22:27:54.307Z,4.38
2023-03-27T22:30:22.172Z,4.36
2023-03-27T22:32:50.139Z,4.25
2023-03-27T22:35:18.207Z,4.11
2023-03-27T22:37:46.195Z,4.23
2023-03-27T22:40:14.174Z,4.12
2023-03-27T22:42:43.395Z,4.10
2023-03-27T22:45:12.232Z,4.26
2023-03-27T22:47:40.066Z,4.21
2023-03-27T22:50:08.887Z,4.33
2023-03-27T22:52:36.663Z,4.29
2023-03-27T22:55:06.095Z,3.91
2023-03-27T22:57:36.119Z,4.14
2023-03-27T23:00:06.945Z,3.86
2023-03-27T23:02:35.020Z,3.89
2023-03-27T23:05:04.147Z,4.23
2023-03-27T23:07:32.611Z,4.19
2023-03-27T23:10:00.788Z,4.04
2023-03-27T23:12:28.696Z,4.25
2023-03-27T23:14:56.560Z,4.01
2023-03-27T23:17:25.877Z,4.21
2023-03-27T23:19:53.769Z,4.14
2023-03-27T23:22:21.672Z,4.12
2023-03-27T23:24:49.565Z,4.19
2023-03-27T23:27:17.381Z,3.98
2023-03-27T23:29:45.832Z,3.84
2023-03-27T23:32:13.747Z,3.39
2023-03-27T23:34:43.039Z,4.18
2023-03-27T23:37:10.908Z,4.09
2023-03-27T23:39:38.864Z,4.11
2023-03-27T23:42:07.046Z,3.96
2023-03-27T23:44:34.911Z,4.14
2023-03-27T23:47:02.792Z,3.93
2023-03-27T23:49:30.774Z,4.04
2023-03-27T23:51:59.943Z,1.33
2023-03-27T23:54:27.756Z,4.06
2023-03-27T23:56:55.778Z,3.69
2023-03-27T23:59:23.724Z,3.56
